Time;durP1;ratioP1;P1;durP2;ratioP2;P2;SDS_P1;SDS_P2;PMS_P1;PMS_P2;Temp;Humidity;BMP_temperature;BMP_pressure;BME280_temperature;BME280_humidity;BME280_pressure;Samples;Min_cycle;Max_cycle;Signal;HPM_P1;HPM_P2
2022/04/20 00:01:20;;;;;;;3.55;3.35;;;;;;;;;;5010407;28;20077;-74
2022/04/20 00:03:46;;;;;;;3.53;3.30;;;;;;;;;;5010185;28;20153;-74
2022/04/20 00:06:12;;;;;;;3.15;2.95;;;;;;;;;;5010457;28;20042;-72
2022/04/20 00:08:38;;;;;;;3.42;3.13;;;;;;;;;;5008408;28;20152;-73
2022/04/20 00:11:04;;;;;;;5.18;3.45;;;;;;;;;;5007568;28;20136;-73
2022/04/20 00:13:30;;;;;;;2.80;2.60;;;;;;;;;;5009916;28;20461;-73
2022/04/20 00:15:57;;;;;;;4.63;3.70;;;;;;;;;;4992690;28;20042;-72
2022/04/20 00:18:23;;;;;;;3.88;3.58;;;;;;;;;;4992398;28;20038;-71
2022/04/20 00:20:49;;;;;;;4.05;3.72;;;;;;;;;;5009337;28;20244;-72
2022/04/20 00:23:14;;;;;;;6.63;3.85;;;;;;;;;;5010012;28;20058;-73
2022/04/20 00:25:40;;;;;;;4.53;4.20;;;;;;;;;;5010090;28;20100;-73
2022/04/20 00:28:06;;;;;;;5.20;3.78;;;;;;;;;;5007717;28;20033;-74
2022/04/20 00:30:32;;;;;;;4.28;3.88;;;;;;;;;;4992464;28;20409;-72
2022/04/20 00:32:59;;;;;;;6.43;4.20;;;;;;;;;;5011544;28;20034;-76
2022/04/20 00:35:25;;;;;;;6.18;4.70;;;;;;;;;;5017662;28;20092;-75
2022/04/20 00:37:51;;;;;;;5.03;4.43;;;;;;;;;;4995975;28;20038;-75
2022/04/20 00:40:17;;;;;;;5.30;4.68;;;;;;;;;;5001214;28;20132;-75
2022/04/20 00:42:43;;;;;;;6.07;4.78;;;;;;;;;;4996251;28;20042;-75
2022/04/20 00:45:10;;;;;;;4.40;4.10;;;;;;;;;;5007111;28;20107;-75
2022/04/20 00:47:36;;;;;;;5.60;4.35;;;;;;;;;;4975456;28;20041;-76
2022/04/20 00:50:02;;;;;;;4.97;4.57;;;;;;;;;;5009623;28;20061;-75
2022/04/20 00:52:28;;;;;;;6.10;5.65;;;;;;;;;;4975706;28;20060;-75
2022/04/20 00:54:54;;;;;;;4.60;4.20;;;;;;;;;;4991789;28;20737;-74
2022/04/20 00:57:20;;;;;;;5.72;5.05;;;;;;;;;;5010479;28;20058;-75
2022/04/20 00:59:46;;;;;;;5.70;5.20;;;;;;;;;;5010916;28;20074;-75
2022/04/20 01:02:13;;;;;;;7.43;5.18;;;;;;;;;;5009715;28;20061;-75
2022/04/20 01:04:39;;;;;;;7.05;5.60;;;;;;;;;;4975713;28;20030;-75
2022/04/20 01:07:35;;;;;;;6.47;5.88;;;;;;;;;;4979792;28;20049;-73
2022/04/20 01:10:16;;;;;;;5.70;5.20;;;;;;;;;;4994098;28;20080;-75
2022/04/20 01:13:06;;;;;;;6.47;5.88;;;;;;;;;;4995614;28;20065;-76
2022/04/20 01:15:45;;;;;;;5.80;5.30;;;;;;;;;;4997228;28;20049;-75
2022/04/20 01:18:43;;;;;;;6.15;5.57;;;;;;;;;;4995989;28;20069;-77
2022/04/20 01:21:33;;;;;;;6.57;5.78;;;;;;;;;;4980805;28;20042;-75
2022/04/20 01:24:12;;;;;;;5.45;4.97;;;;;;;;;;4994982;28;20034;-74
2022/04/20 01:26:59;;;;;;;5.53;5.03;;;;;;;;;;5010213;28;20073;-74
2022/04/20 01:29:46;;;;;;;5.60;5.15;;;;;;;;;;4994852;28;20514;-75
2022/04/20 01:32:24;;;;;;;5.40;5.00;;;;;;;;;;4995296;28;20045;-73
2022/04/20 01:35:11;;;;;;;4.70;4.20;;;;;;;;;;4994370;28;20410;-73
2022/04/20 01:37:38;;;;;;;5.43;4.97;;;;;;;;;;4993023;28;20046;-72
2022/04/20 01:40:05;;;;;;;5.47;4.82;;;;;;;;;;4978956;28;20042;-73
2022/04/20 01:42:32;;;;;;;5.40;4.57;;;;;;;;;;5012471;28;20128;-73
2022/04/20 01:45:02;;;;;;;4.85;4.45;;;;;;;;;;5011286;28;20053;-72
2022/04/20 01:47:55;;;;;;;4.78;4.47;;;;;;;;;;5011752;28;20131;-72
2022/04/20 01:50:27;;;;;;;3.85;3.58;;;;;;;;;;4995034;28;20616;-73
2022/04/20 01:53:16;;;;;;;4.70;4.40;;;;;;;;;;5010359;28;20042;-73
2022/04/20 01:56:03;;;;;;;4.30;4.00;;;;;;;;;;4993489;28;20041;-71
2022/04/20 01:58:47;;;;;;;3.90;3.60;;;;;;;;;;4997076;28;20049;-73
2022/04/20 02:04:08;;;;;;;4.35;3.95;;;;;;;;;;5009958;28;20038;-74
2022/04/20 02:06:37;;;;;;;3.97;3.28;;;;;;;;;;5010669;28;20038;-73
2022/04/20 02:09:20;;;;;;;3.60;3.40;;;;;;;;;;4993131;28;20040;-72
2022/04/20 02:11:55;;;;;;;3.65;3.42;;;;;;;;;;4992217;28;20042;-73
2022/04/20 02:14:33;;;;;;;3.95;3.65;;;;;;;;;;4980166;28;20065;-73
2022/04/20 02:17:10;;;;;;;4.05;3.75;;;;;;;;;;4990813;28;20037;-73
2022/04/20 02:19:43;;;;;;;3.40;3.20;;;;;;;;;;4979003;28;20050;-72
2022/04/20 02:22:15;;;;;;;3.97;3.67;;;;;;;;;;4994213;28;20049;-74
2022/04/20 02:24:41;;;;;;;3.75;3.53;;;;;;;;;;4993872;28;20092;-72
2022/04/20 02:27:09;;;;;;;3.60;3.30;;;;;;;;;;4986358;28;20044;-74
2022/04/20 02:29:35;;;;;;;3.58;3.28;;;;;;;;;;5011664;28;20569;-73
2022/04/20 02:32:00;;;;;;;3.17;2.97;;;;;;;;;;4994035;28;20065;-73
2022/04/20 02:34:27;;;;;;;3.20;2.95;;;;;;;;;;5011442;28;20068;-72
2022/04/20 02:36:53;;;;;;;3.40;3.17;;;;;;;;;;4993794;28;20133;-71
2022/04/20 02:39:21;;;;;;;3.20;3.00;;;;;;;;;;5011426;28;20034;-72
2022/04/20 02:41:47;;;;;;;5.25;3.17;;;;;;;;;;4978821;28;20469;-72
2022/04/20 02:44:14;;;;;;;3.50;3.30;;;;;;;;;;5011236;28;20030;-72
2022/04/20 02:46:40;;;;;;;3.20;3.00;;;;;;;;;;5009477;28;20091;-73
2022/04/20 02:49:06;;;;;;;3.08;2.88;;;;;;;;;;5011109;28;20037;-72
2022/04/20 02:51:32;;;;;;;3.47;3.22;;;;;;;;;;4994108;28;20046;-72
2022/04/20 02:53:58;;;;;;;2.92;2.80;;;;;;;;;;5009934;28;20128;-73
2022/04/20 02:56:24;;;;;;;3.53;3.22;;;;;;;;;;4993928;28;20156;-73
2022/04/20 02:58:51;;;;;;;2.90;2.60;;;;;;;;;;4993779;28;20060;-72
2022/04/20 03:01:18;;;;;;;3.58;3.05;;;;;;;;;;4994295;28;20057;-68
2022/04/20 03:03:45;;;;;;;3.72;3.42;;;;;;;;;;5011193;28;20458;-69
2022/04/20 03:06:31;;;;;;;8.77;3.20;;;;;;;;;;4977923;28;20041;-68
2022/04/20 03:09:03;;;;;;;3.85;3.33;;;;;;;;;;4977251;28;20042;-69
2022/04/20 03:11:29;;;;;;;3.55;3.25;;;;;;;;;;4993835;28;20045;-69
2022/04/20 03:13:56;;;;;;;2.83;2.63;;;;;;;;;;4993590;28;20417;-69
2022/04/20 03:16:24;;;;;;;6.07;3.30;;;;;;;;;;4993638;28;20045;-69
2022/04/20 03:18:50;;;;;;;3.67;3.38;;;;;;;;;;5009691;28;20046;-68
2022/04/20 03:21:22;;;;;;;3.35;3.05;;;;;;;;;;4974948;28;20566;-70
2022/04/20 03:23:51;;;;;;;2.83;2.63;;;;;;;;;;4996357;28;20037;-69
2022/04/20 03:26:25;;;;;;;3.30;3.00;;;;;;;;;;5018064;28;20049;-70
2022/04/20 03:29:06;;;;;;;3.25;3.00;;;;;;;;;;4981166;28;20037;-70
2022/04/20 03:31:32;;;;;;;3.42;2.83;;;;;;;;;;5018136;28;20044;-68
2022/04/20 03:33:58;;;;;;;2.70;2.50;;;;;;;;;;4999131;28;20049;-69
2022/04/20 03:36:24;;;;;;;2.90;2.70;;;;;;;;;;4977032;28;20045;-70
2022/04/20 03:38:50;;;;;;;2.78;2.50;;;;;;;;;;5010514;28;20096;-69
2022/04/20 03:41:18;;;;;;;3.15;2.95;;;;;;;;;;5010785;28;20064;-70
2022/04/20 03:43:44;;;;;;;4.53;3.10;;;;;;;;;;5010512;28;20049;-70
2022/04/20 03:46:11;;;;;;;3.78;2.80;;;;;;;;;;5010615;28;20045;-69
2022/04/20 03:48:37;;;;;;;3.15;2.95;;;;;;;;;;5010599;28;20046;-70
2022/04/20 03:51:02;;;;;;;3.03;2.83;;;;;;;;;;5010365;28;20506;-69
2022/04/20 03:53:30;;;;;;;2.22;2.13;;;;;;;;;;5009289;28;20537;-70
2022/04/20 03:55:57;;;;;;;2.58;2.38;;;;;;;;;;4992819;28;20132;-68
2022/04/20 03:58:24;;;;;;;2.50;2.30;;;;;;;;;;4976352;28;20085;-70
2022/04/20 04:00:51;;;;;;;2.28;2.03;;;;;;;;;;5010115;28;20085;-71
2022/04/20 04:03:18;;;;;;;4.32;2.25;;;;;;;;;;4991887;28;20052;-70
2022/04/20 04:05:45;;;;;;;2.10;2.00;;;;;;;;;;5008295;28;20042;-70
2022/04/20 04:08:18;;;;;;;2.33;2.22;;;;;;;;;;4985479;28;20073;-70
2022/04/20 04:10:43;;;;;;;2.03;1.92;;;;;;;;;;4992374;28;20568;-69
2022/04/20 04:13:10;;;;;;;4.72;2.30;;;;;;;;;;4990200;28;20042;-69
2022/04/20 04:15:38;;;;;;;2.47;2.28;;;;;;;;;;4988315;28;20057;-70
2022/04/20 04:18:05;;;;;;;3.42;2.28;;;;;;;;;;5007409;28;20103;-70
2022/04/20 04:20:38;;;;;;;2.38;2.28;;;;;;;;;;4986227;28;20058;-69
2022/04/20 04:23:04;;;;;;;2.58;2.30;;;;;;;;;;4989338;28;20123;-70
2022/04/20 04:25:43;;;;;;;2.20;2.10;;;;;;;;;;5005893;28;20116;-69
2022/04/20 04:28:12;;;;;;;36.15;4.03;;;;;;;;;;4990151;28;20042;-70
2022/04/20 04:30:43;;;;;;;2.30;2.10;;;;;;;;;;4991560;28;20076;-69
2022/04/20 04:33:09;;;;;;;8.20;2.30;;;;;;;;;;4990563;28;20033;-70
2022/04/20 04:35:36;;;;;;;2.28;2.05;;;;;;;;;;4992582;28;20057;-70
2022/04/20 04:38:05;;;;;;;5.47;2.08;;;;;;;;;;4991737;28;20042;-70
2022/04/20 04:40:32;;;;;;;2.55;2.10;;;;;;;;;;5007846;28;20129;-70
2022/04/20 04:43:01;;;;;;;1.95;1.85;;;;;;;;;;4991823;28;20053;-69
2022/04/20 04:48:36;;;;;;;;;;;;;;;;;;5006446;28;20050;-69
2022/04/20 04:51:03;;;;;;;2.47;2.25;;;;;;;;;;4990883;28;20437;-69
2022/04/20 04:53:31;;;;;;;3.38;2.20;;;;;;;;;;4991388;28;20041;-70
2022/04/20 04:55:57;;;;;;;3.08;2.28;;;;;;;;;;4978872;28;20068;-71
2022/04/20 04:58:23;;;;;;;2.33;2.13;;;;;;;;;;4991402;28;20121;-70
2022/04/20 05:00:50;;;;;;;2.92;2.38;;;;;;;;;;4986606;28;20057;-71
2022/04/20 05:03:22;;;;;;;7.07;2.13;;;;;;;;;;5003900;28;20034;-69
2022/04/20 05:05:48;;;;;;;3.45;2.10;;;;;;;;;;5008258;28;20038;-72
2022/04/20 05:08:22;;;;;;;2.13;2.03;;;;;;;;;;4989362;28;20072;-70
2022/04/20 05:10:48;;;;;;;18.55;3.13;;;;;;;;;;5006721;28;20088;-72
2022/04/20 05:13:16;;;;;;;2.25;2.10;;;;;;;;;;4990853;28;20100;-71
2022/04/20 05:15:42;;;;;;;2.80;2.00;;;;;;;;;;5013739;28;20056;-70
2022/04/20 05:18:08;;;;;;;2.85;2.28;;;;;;;;;;5010869;28;20029;-69
2022/04/20 05:20:34;;;;;;;2.08;1.98;;;;;;;;;;5022555;28;20108;-68
2022/04/20 05:23:01;;;;;;;5.05;2.30;;;;;;;;;;4989833;28;20053;-70
2022/04/20 05:25:28;;;;;;;2.45;2.25;;;;;;;;;;4987377;28;20046;-71
2022/04/20 05:27:53;;;;;;;3.72;2.03;;;;;;;;;;4991058;28;20056;-70
2022/04/20 05:30:25;;;;;;;2.50;2.35;;;;;;;;;;4990506;28;20056;-70
2022/04/20 05:32:51;;;;;;;2.38;2.17;;;;;;;;;;4991298;28;20465;-70
2022/04/20 05:35:19;;;;;;;2.55;2.20;;;;;;;;;;5007451;28;20058;-71
2022/04/20 05:43:42;;;;;;;1.92;1.70;;;;;;;;;;5010708;28;20479;-70
2022/04/20 05:46:10;;;;;;;3.95;2.22;;;;;;;;;;5002118;28;20072;-70
2022/04/20 05:48:46;;;;;;;2.78;2.28;;;;;;;;;;4998142;28;20399;-71
2022/04/20 05:51:14;;;;;;;4.88;2.20;;;;;;;;;;5004713;28;20052;-70
2022/04/20 05:53:43;;;;;;;2.72;2.10;;;;;;;;;;5002783;28;20049;-70
2022/04/20 05:56:09;;;;;;;7.00;1.77;;;;;;;;;;5017197;28;20053;-70
2022/04/20 05:58:40;;;;;;;2.00;1.90;;;;;;;;;;5008581;28;20418;-70
2022/04/20 06:01:06;;;;;;;2.67;1.63;;;;;;;;;;5010426;28;20107;-71
2022/04/20 06:04:11;;;;;;;2.13;1.92;;;;;;;;;;5000469;28;20089;-69
2022/04/20 06:06:42;;;;;;;1.73;1.65;;;;;;;;;;4995237;28;20041;-71
2022/04/20 06:09:18;;;;;;;3.58;1.88;;;;;;;;;;5010635;28;20136;-70
2022/04/20 06:11:54;;;;;;;2.22;1.60;;;;;;;;;;5011622;28;20511;-70
2022/04/20 06:14:29;;;;;;;1.40;1.40;;;;;;;;;;5010407;28;20053;-70
2022/04/20 06:17:18;;;;;;;2.63;1.60;;;;;;;;;;4988876;28;20048;-70
2022/04/20 06:19:51;;;;;;;1.75;1.40;;;;;;;;;;4993660;28;20056;-70
2022/04/20 06:22:31;;;;;;;1.60;1.47;;;;;;;;;;4993870;28;20058;-70
2022/04/20 06:25:21;;;;;;;2.35;1.58;;;;;;;;;;4993587;28;20320;-69
2022/04/20 06:28:02;;;;;;;1.55;1.55;;;;;;;;;;4993636;28;20053;-69
2022/04/20 06:30:48;;;;;;;2.03;1.67;;;;;;;;;;5011395;28;20226;-70
2022/04/20 06:33:40;;;;;;;1.70;1.60;;;;;;;;;;4989013;28;20038;-70
2022/04/20 06:36:34;;;;;;;3.38;1.38;;;;;;;;;;4995510;28;20096;-69
2022/04/20 06:39:23;;;;;;;1.60;1.55;;;;;;;;;;5004643;28;20046;-70
2022/04/20 06:42:08;;;;;;;1.48;1.38;;;;;;;;;;5008845;28;20057;-71
2022/04/20 06:44:59;;;;;;;1.73;1.63;;;;;;;;;;5010950;28;20092;-69
2022/04/20 06:47:42;;;;;;;2.97;1.25;;;;;;;;;;4974965;28;20054;-69
2022/04/20 06:50:41;;;;;;;1.73;1.63;;;;;;;;;;5005325;28;20037;-69
2022/04/20 06:59:00;;;;;;;5.25;2.00;;;;;;;;;;5003810;28;20041;-70
2022/04/20 07:01:45;;;;;;;1.10;1.10;;;;;;;;;;4990875;28;20557;-70
2022/04/20 07:04:37;;;;;;;1.70;1.60;;;;;;;;;;5005218;28;20046;-71
2022/04/20 07:07:41;;;;;;;2.13;1.50;;;;;;;;;;4930356;29;20051;-70
2022/04/20 07:10:15;;;;;;;4.88;1.35;;;;;;;;;;4929896;29;20528;-70
2022/04/20 07:12:50;;;;;;;2.40;1.40;;;;;;;;;;4958463;28;20107;-70
2022/04/20 07:15:16;;;;;;;8.20;2.00;;;;;;;;;;5008449;28;20495;-71
2022/04/20 07:17:42;;;;;;;4.22;1.65;;;;;;;;;;4993122;28;20080;-71
2022/04/20 07:20:29;;;;;;;3.85;1.50;;;;;;;;;;4962841;28;20065;-71
2022/04/20 07:23:25;;;;;;;1.98;1.50;;;;;;;;;;4973559;28;20034;-71
2022/04/20 07:25:58;;;;;;;1.85;1.63;;;;;;;;;;4989432;28;20046;-70
2022/04/20 07:28:49;;;;;;;1.42;1.30;;;;;;;;;;4989746;28;20045;-71
2022/04/20 07:31:34;;;;;;;3.85;1.40;;;;;;;;;;4992412;28;20042;-70
2022/04/20 07:34:25;;;;;;;3.33;1.20;;;;;;;;;;4992375;28;20510;-71
2022/04/20 07:37:05;;;;;;;1.45;1.33;;;;;;;;;;5009113;28;20544;-69
2022/04/20 07:39:49;;;;;;;1.30;1.30;;;;;;;;;;5009938;28;20064;-70
2022/04/20 07:42:28;;;;;;;1.58;1.48;;;;;;;;;;5009889;28;20062;-69
2022/04/20 07:45:25;;;;;;;1.70;1.60;;;;;;;;;;4994822;28;20046;-70
2022/04/20 07:48:17;;;;;;;2.50;1.55;;;;;;;;;;5003760;28;20513;-69
2022/04/20 07:51:19;;;;;;;2.22;1.83;;;;;;;;;;4975103;28;20053;-71
2022/04/20 07:53:44;;;;;;;2.03;1.92;;;;;;;;;;5009117;28;20045;-70
2022/04/20 07:56:33;;;;;;;2.60;1.83;;;;;;;;;;5009064;28;20196;-69
2022/04/20 07:59:14;;;;;;;5.82;1.88;;;;;;;;;;4991990;28;20046;-70
2022/04/20 08:02:13;;;;;;;1.50;1.50;;;;;;;;;;4992144;28;20061;-71
2022/04/20 08:04:57;;;;;;;2.88;1.92;;;;;;;;;;5009479;28;20073;-70
2022/04/20 08:07:26;;;;;;;3.03;1.90;;;;;;;;;;4991862;28;20049;-70
2022/04/20 08:09:53;;;;;;;1.83;1.73;;;;;;;;;;4991548;28;20042;-70
2022/04/20 08:12:18;;;;;;;4.90;1.60;;;;;;;;;;4991764;28;20537;-69
2022/04/20 08:14:44;;;;;;;2.72;1.70;;;;;;;;;;4974878;28;20045;-70
2022/04/20 08:17:16;;;;;;;3.08;1.40;;;;;;;;;;4991865;28;20588;-70
2022/04/20 08:19:44;;;;;;;1.60;1.50;;;;;;;;;;5008894;28;20449;-70
2022/04/20 08:22:12;;;;;;;1.33;1.27;;;;;;;;;;5008483;28;20066;-69
2022/04/20 08:24:38;;;;;;;3.80;1.83;;;;;;;;;;4991619;28;20108;-70
2022/04/20 08:27:04;;;;;;;2.65;1.55;;;;;;;;;;5002118;28;20050;-71
2022/04/20 08:29:30;;;;;;;3.13;1.33;;;;;;;;;;4997248;28;20053;-70
2022/04/20 08:31:56;;;;;;;4.15;1.70;;;;;;;;;;5009196;28;20057;-71
2022/04/20 08:34:22;;;;;;;2.10;1.80;;;;;;;;;;5009022;28;20034;-70
2022/04/20 08:36:48;;;;;;;6.20;1.67;;;;;;;;;;5009404;28;20045;-71
2022/04/20 08:39:17;;;;;;;1.77;1.67;;;;;;;;;;5007850;28;20399;-70
2022/04/20 08:41:46;;;;;;;3.20;1.70;;;;;;;;;;5004910;28;20658;-70
2022/04/20 08:44:12;;;;;;;3.45;1.50;;;;;;;;;;5005783;28;20123;-72
2022/04/20 08:46:39;;;;;;;3.20;1.33;;;;;;;;;;5007856;28;20133;-71
2022/04/20 08:49:05;;;;;;;1.48;1.38;;;;;;;;;;5007188;28;20054;-71
2022/04/20 08:52:37;;;;;;;5.47;1.50;;;;;;;;;;5004726;28;20436;-71
2022/04/20 08:54:17;;;;;;;4.80;1.70;;;;;;;;;;4987955;28;20042;-72
2022/04/20 08:59:29;;;;;;;2.15;1.50;;;;;;;;;;5006579;28;20054;-72
2022/04/20 09:01:57;;;;;;;4.38;1.88;;;;;;;;;;5006344;28;20053;-73
2022/04/20 09:04:23;;;;;;;12.77;1.92;;;;;;;;;;5004486;28;20129;-73
2022/04/20 09:06:49;;;;;;;1.83;1.67;;;;;;;;;;5004524;28;20193;-74
2022/04/20 09:09:15;;;;;;;3.13;1.40;;;;;;;;;;5005588;28;20041;-74
2022/04/20 09:11:40;;;;;;;3.60;1.70;;;;;;;;;;5006006;28;20584;-74
2022/04/20 09:14:16;;;;;;;1.45;1.40;;;;;;;;;;5006176;28;20038;-73
2022/04/20 09:16:43;;;;;;;3.33;1.80;;;;;;;;;;4973216;28;20076;-74
2022/04/20 09:19:08;;;;;;;2.28;1.50;;;;;;;;;;5009561;28;20506;-74
2022/04/20 09:21:34;;;;;;;2.05;1.60;;;;;;;;;;5012756;28;20077;-73
2022/04/20 09:24:10;;;;;;;6.35;1.95;;;;;;;;;;4993643;28;20069;-73
2022/04/20 09:26:49;;;;;;;3.22;1.75;;;;;;;;;;4993730;28;20445;-73
2022/04/20 09:29:15;;;;;;;3.10;1.60;;;;;;;;;;4993577;28;20070;-73
2022/04/20 09:31:45;;;;;;;1.77;1.60;;;;;;;;;;4976227;28;20052;-74
2022/04/20 09:37:16;;;;;;;2.33;1.50;;;;;;;;;;4985676;28;20100;-76
2022/04/20 09:39:46;;;;;;;6.93;1.67;;;;;;;;;;4993938;28;20031;-73
2022/04/20 09:42:12;;;;;;;2.05;1.83;;;;;;;;;;4993437;28;20054;-74
2022/04/20 09:44:40;;;;;;;2.30;1.67;;;;;;;;;;4993285;28;20046;-73
2022/04/20 09:49:56;;;;;;;3.53;2.00;;;;;;;;;;4993442;28;20133;-73
2022/04/20 09:52:23;;;;;;;1.95;1.77;;;;;;;;;;4991775;28;20050;-74
2022/04/20 09:54:53;;;;;;;5.13;1.98;;;;;;;;;;5005867;28;20046;-72
2022/04/20 09:57:19;;;;;;;3.95;1.70;;;;;;;;;;5011204;28;20076;-73
2022/04/20 09:59:58;;;;;;;2.10;1.90;;;;;;;;;;4995320;28;20042;-73
2022/04/20 10:02:25;;;;;;;8.23;2.33;;;;;;;;;;5011516;28;20057;-73
2022/04/20 10:04:51;;;;;;;3.60;2.08;;;;;;;;;;5012647;28;20045;-73
2022/04/20 10:07:22;;;;;;;2.05;1.85;;;;;;;;;;5012508;28;20132;-73
2022/04/20 10:09:48;;;;;;;;;;;;;;;;;;5013036;28;20045;-74
2022/04/20 10:12:15;;;;;;;3.90;2.38;;;;;;;;;;5012297;28;20301;-74
2022/04/20 10:17:26;;;;;;;3.90;1.92;;;;;;;;;;4995399;28;20077;-74
2022/04/20 10:19:52;;;;;;;2.10;2.00;;;;;;;;;;5012468;28;20065;-73
2022/04/20 10:22:19;;;;;;;2.90;1.77;;;;;;;;;;5012070;28;20433;-74
2022/04/20 10:24:45;;;;;;;2.20;1.90;;;;;;;;;;5010933;28;20041;-73
2022/04/20 10:27:21;;;;;;;1.70;1.60;;;;;;;;;;5010662;28;20073;-74
2022/04/20 10:29:50;;;;;;;2.60;1.80;;;;;;;;;;5010998;28;20049;-74
2022/04/20 10:32:22;;;;;;;3.22;1.85;;;;;;;;;;5010448;28;20457;-73
2022/04/20 10:34:52;;;;;;;1.92;1.83;;;;;;;;;;4994504;28;20593;-72
2022/04/20 10:37:30;;;;;;;2.60;1.90;;;;;;;;;;4993820;28;20042;-73
2022/04/20 10:40:18;;;;;;;1.92;1.75;;;;;;;;;;5010272;28;20187;-73
2022/04/20 10:43:11;;;;;;;5.87;2.30;;;;;;;;;;4994606;28;20387;-73
2022/04/20 10:45:37;;;;;;;1.70;1.60;;;;;;;;;;4994255;28;20064;-73
2022/04/20 10:48:03;;;;;;;2.47;1.83;;;;;;;;;;4993992;28;20430;-74
2022/04/20 10:50:31;;;;;;;5.10;1.60;;;;;;;;;;5011723;28;20048;-75
2022/04/20 10:53:04;;;;;;;4.25;1.70;;;;;;;;;;4994329;28;20498;-74
2022/04/20 10:55:32;;;;;;;3.00;2.05;;;;;;;;;;4993889;28;20056;-73
2022/04/20 10:58:05;;;;;;;3.25;2.10;;;;;;;;;;4978000;28;20057;-72
2022/04/20 11:00:34;;;;;;;2.97;1.90;;;;;;;;;;4990614;28;20050;-73
2022/04/20 11:03:00;;;;;;;1.80;1.70;;;;;;;;;;4992055;28;20054;-74
2022/04/20 11:05:26;;;;;;;1.88;1.55;;;;;;;;;;4991503;28;20101;-74
2022/04/20 11:08:04;;;;;;;4.20;1.95;;;;;;;;;;4992118;28;20588;-73
2022/04/20 11:10:30;;;;;;;4.18;1.17;;;;;;;;;;4974393;28;20042;-73
2022/04/20 11:19:13;;;;;;;2.00;1.80;;;;;;;;;;4974008;28;20479;-73
2022/04/20 11:22:00;;;;;;;2.80;2.00;;;;;;;;;;4990898;28;20050;-73
2022/04/20 11:24:27;;;;;;;2.38;2.00;;;;;;;;;;4991356;28;20042;-73
2022/04/20 11:26:53;;;;;;;7.05;1.65;;;;;;;;;;4991674;28;20050;-74
2022/04/20 11:29:22;;;;;;;1.83;1.73;;;;;;;;;;4990122;28;20038;-74
2022/04/20 11:31:49;;;;;;;5.90;1.83;;;;;;;;;;4974218;28;20050;-74
2022/04/20 11:34:16;;;;;;;4.57;1.40;;;;;;;;;;4973708;28;20493;-73
2022/04/20 11:36:42;;;;;;;2.25;1.70;;;;;;;;;;4973663;28;20081;-74
2022/04/20 11:39:12;;;;;;;2.35;2.22;;;;;;;;;;4989918;28;20046;-73
2022/04/20 11:41:38;;;;;;;3.30;3.00;;;;;;;;;;4973561;28;20050;-73
2022/04/20 11:44:18;;;;;;;2.30;1.60;;;;;;;;;;4991395;28;20034;-73
2022/04/20 11:46:44;;;;;;;2.10;1.90;;;;;;;;;;4989861;28;20058;-73
2022/04/20 11:49:10;;;;;;;2.88;1.80;;;;;;;;;;4989524;28;20132;-73
2022/04/20 11:51:52;;;;;;;4.55;2.00;;;;;;;;;;4989888;28;20078;-74
2022/04/20 11:54:22;;;;;;;5.32;2.53;;;;;;;;;;4989607;28;20271;-73
2022/04/20 11:57:17;;;;;;;2.25;1.80;;;;;;;;;;4987180;28;20507;-73
2022/04/20 11:59:51;;;;;;;4.82;3.30;;;;;;;;;;5010524;28;20056;-73
2022/04/20 12:02:18;;;;;;;2.22;2.13;;;;;;;;;;5010528;28;20046;-73
2022/04/20 12:05:07;;;;;;;3.42;2.15;;;;;;;;;;4992765;28;20577;-72
2022/04/20 12:07:34;;;;;;;1.70;1.63;;;;;;;;;;5010508;28;20048;-73
2022/04/20 12:10:00;;;;;;;3.22;1.70;;;;;;;;;;5009947;28;20434;-74
2022/04/20 12:12:34;;;;;;;2.08;1.80;;;;;;;;;;4992692;28;20536;-73
2022/04/20 12:15:11;;;;;;;4.00;1.48;;;;;;;;;;4992729;28;20045;-73
2022/04/20 12:18:00;;;;;;;2.17;2.00;;;;;;;;;;4995833;28;20434;-73
2022/04/20 12:20:29;;;;;;;5.18;2.40;;;;;;;;;;5009829;28;20070;-73
2022/04/20 12:23:13;;;;;;;5.32;2.45;;;;;;;;;;5010408;28;20045;-73
2022/04/20 12:25:40;;;;;;;2.05;1.95;;;;;;;;;;5008878;28;20129;-73
2022/04/20 12:28:35;;;;;;;1.67;1.58;;;;;;;;;;4992652;28;20544;-73
2022/04/20 12:30:52;;;;;;;1.85;1.45;;;;;;;;;;4992622;28;20053;-73
2022/04/20 12:33:21;;;;;;;2.22;1.88;;;;;;;;;;5008564;28;20045;-73
2022/04/20 12:36:00;;;;;;;2.85;1.90;;;;;;;;;;5008997;28;20052;-73
2022/04/20 12:39:04;;;;;;;2.00;1.90;;;;;;;;;;5008984;28;20041;-73
2022/04/20 12:42:02;;;;;;;1.90;1.80;;;;;;;;;;4984001;28;20058;-74
2022/04/20 12:44:37;;;;;;;2.40;1.95;;;;;;;;;;4999023;28;20513;-74
2022/04/20 12:47:15;;;;;;;3.63;2.22;;;;;;;;;;5014577;28;20042;-73
2022/04/20 12:49:48;;;;;;;2.13;1.65;;;;;;;;;;5012804;28;20088;-73
2022/04/20 12:52:17;;;;;;;2.17;2.08;;;;;;;;;;5011681;28;20481;-74
2022/04/20 12:54:54;;;;;;;2.88;2.47;;;;;;;;;;5008862;28;20048;-74
2022/04/20 13:03:05;;;;;;;2.17;1.47;;;;;;;;;;5014227;28;20087;-73
2022/04/20 13:05:40;;;;;;;5.00;2.30;;;;;;;;;;5014408;28;20046;-73
2022/04/20 13:08:06;;;;;;;4.20;2.47;;;;;;;;;;5014528;28;20042;-74
2022/04/20 13:10:40;;;;;;;1.88;1.73;;;;;;;;;;4996709;28;20466;-73
2022/04/20 13:13:05;;;;;;;3.38;2.80;;;;;;;;;;5014277;28;20042;-73
2022/04/20 13:15:38;;;;;;;2.20;1.90;;;;;;;;;;4996030;28;20068;-74
2022/04/20 13:18:04;;;;;;;4.15;2.83;;;;;;;;;;5013765;28;20502;-74
2022/04/20 13:20:31;;;;;;;2.70;2.20;;;;;;;;;;5013092;28;20061;-74
2022/04/20 13:22:59;;;;;;;2.10;1.52;;;;;;;;;;5013758;28;20208;-74
2022/04/20 13:28:09;;;;;;;2.33;1.98;;;;;;;;;;5013766;28;20045;-73
2022/04/20 13:30:36;;;;;;;4.20;1.80;;;;;;;;;;5013006;28;20046;-73
2022/04/20 13:33:11;;;;;;;2.40;2.17;;;;;;;;;;5012309;28;20041;-74
2022/04/20 13:35:42;;;;;;;4.38;2.60;;;;;;;;;;5013198;28;20051;-73
2022/04/20 13:38:09;;;;;;;6.78;2.47;;;;;;;;;;5013272;28;20045;-73
2022/04/20 13:40:39;;;;;;;5.72;3.33;;;;;;;;;;5012603;28;20052;-73
2022/04/20 13:43:05;;;;;;;3.57;1.87;;;;;;;;;;5013233;28;20673;-74
2022/04/20 13:45:31;;;;;;;4.53;2.08;;;;;;;;;;5011757;28;20367;-74
2022/04/20 13:47:57;;;;;;;5.13;1.75;;;;;;;;;;5012644;28;20050;-74
2022/04/20 13:50:23;;;;;;;4.28;2.25;;;;;;;;;;5013057;28;20049;-74
2022/04/20 13:52:49;;;;;;;4.28;2.20;;;;;;;;;;4995485;28;20037;-74
2022/04/20 13:55:19;;;;;;;2.78;1.67;;;;;;;;;;5012909;28;20042;-73
2022/04/20 13:57:49;;;;;;;2.75;2.03;;;;;;;;;;5012867;28;20433;-74
2022/04/20 14:00:17;;;;;;;5.93;1.70;;;;;;;;;;5012575;28;20060;-74
2022/04/20 14:02:43;;;;;;;2.03;1.92;;;;;;;;;;5011404;28;20843;-73
2022/04/20 14:05:09;;;;;;;4.57;2.13;;;;;;;;;;5011508;28;20050;-73
2022/04/20 14:07:35;;;;;;;6.78;2.08;;;;;;;;;;5012151;28;20426;-74
2022/04/20 14:10:05;;;;;;;6.68;2.08;;;;;;;;;;4995015;28;20050;-74
2022/04/20 14:12:36;;;;;;;2.95;1.98;;;;;;;;;;4993985;28;20041;-74
2022/04/20 14:15:02;;;;;;;2.47;2.03;;;;;;;;;;5012330;28;20069;-73
2022/04/20 14:17:34;;;;;;;2.55;2.08;;;;;;;;;;5012452;28;20041;-73
2022/04/20 14:20:10;;;;;;;4.03;2.00;;;;;;;;;;5012270;28;20038;-73
2022/04/20 14:22:36;;;;;;;9.75;3.53;;;;;;;;;;5012026;28;20066;-73
2022/04/20 14:33:27;;;;;;;6.53;1.90;;;;;;;;;;5011026;28;20534;-74
2022/04/20 14:35:54;;;;;;;3.78;2.63;;;;;;;;;;5012114;28;20045;-73
2022/04/20 14:38:20;;;;;;;3.72;2.45;;;;;;;;;;5011692;28;20054;-73
2022/04/20 14:40:46;;;;;;;3.72;2.25;;;;;;;;;;5012094;28;20096;-73
2022/04/20 14:43:12;;;;;;;2.03;1.70;;;;;;;;;;5012238;28;20050;-73
2022/04/20 14:45:38;;;;;;;2.28;1.80;;;;;;;;;;5011436;28;20041;-72
2022/04/20 14:48:04;;;;;;;2.22;1.80;;;;;;;;;;4993750;28;20103;-74
2022/04/20 14:50:30;;;;;;;1.98;1.88;;;;;;;;;;4994880;28;20034;-73
2022/04/20 14:52:56;;;;;;;4.82;2.10;;;;;;;;;;5010555;28;20429;-74
2022/04/20 14:55:22;;;;;;;4.45;2.20;;;;;;;;;;5011226;28;20037;-74
2022/04/20 14:57:48;;;;;;;2.83;2.17;;;;;;;;;;5011454;28;20462;-74
2022/04/20 15:00:15;;;;;;;5.40;2.40;;;;;;;;;;5011514;28;20050;-74
2022/04/20 15:02:41;;;;;;;2.50;2.08;;;;;;;;;;5011106;28;20177;-74
2022/04/20 15:05:07;;;;;;;6.15;2.45;;;;;;;;;;5010174;28;20398;-73
2022/04/20 15:07:33;;;;;;;3.33;2.10;;;;;;;;;;5010998;28;20081;-74
2022/04/20 15:09:59;;;;;;;8.02;2.10;;;;;;;;;;5011265;28;20096;-73
2022/04/20 15:12:24;;;;;;;2.47;2.03;;;;;;;;;;5010803;28;20168;-74
2022/04/20 15:14:51;;;;;;;2.10;2.00;;;;;;;;;;5011080;28;20074;-74
2022/04/20 15:17:18;;;;;;;3.25;2.40;;;;;;;;;;5009869;28;20128;-74
2022/04/20 15:19:44;;;;;;;3.03;2.20;;;;;;;;;;5011308;28;20049;-74
2022/04/20 15:22:11;;;;;;;2.70;2.50;;;;;;;;;;5009848;28;20534;-73
2022/04/20 15:24:37;;;;;;;4.47;1.90;;;;;;;;;;5010334;28;20053;-73
2022/04/20 15:27:04;;;;;;;3.83;2.05;;;;;;;;;;5010842;28;20065;-74
2022/04/20 15:29:30;;;;;;;3.85;2.30;;;;;;;;;;5009584;28;20080;-74
2022/04/20 15:31:56;;;;;;;8.68;3.00;;;;;;;;;;5010851;28;20131;-74
2022/04/20 15:34:23;;;;;;;6.35;2.20;;;;;;;;;;5010886;28;20049;-75
2022/04/20 15:36:49;;;;;;;2.22;2.03;;;;;;;;;;5011012;28;20061;-75
2022/04/20 15:39:14;;;;;;;1.80;1.60;;;;;;;;;;5011288;28;20080;-74
2022/04/20 15:41:41;;;;;;;6.53;2.15;;;;;;;;;;4992952;28;20145;-73
2022/04/20 15:44:07;;;;;;;4.20;2.40;;;;;;;;;;4992779;28;20037;-73
2022/04/20 15:46:33;;;;;;;7.47;2.58;;;;;;;;;;4992639;28;20311;-73
2022/04/20 15:48:59;;;;;;;4.35;2.40;;;;;;;;;;5010602;28;20657;-73
2022/04/20 15:51:26;;;;;;;8.52;2.30;;;;;;;;;;5009360;28;20045;-74
2022/04/20 15:53:53;;;;;;;4.30;2.17;;;;;;;;;;5010352;28;20054;-73
2022/04/20 16:01:58;;;;;;;3.88;2.35;;;;;;;;;;5012442;28;20421;-74
2022/04/20 16:04:32;;;;;;;5.20;2.40;;;;;;;;;;5012533;28;20395;-73
2022/04/20 16:07:02;;;;;;;3.25;2.10;;;;;;;;;;5008161;28;20048;-73